26 września 2022

Czas Kod Pogoda Temp. Widoczność Sufit Wiatr METAR/SPECI
23:25
V
10 °C 10 km+ 4.900 ft 310° 310° 15 kt METAR EHLW 262125Z AUTO 31015KT 280V360 9999 -RADZ FEW015CB SCT043 OVC049 10/08 Q0994 RERA REDZ BLU
22:55
V
11 °C 10 km+ 4.800 ft 300° 300° 10 kt METAR EHLW 262055Z AUTO 30010KT 260V330 9999 FEW015CB BKN048 OVC053 11/08 Q0994 BLU
22:25
V
12 °C 10 km+ 7.700 ft 300° 300° 12 kt METAR EHLW 262025Z AUTO 30012KT 270V330 9999 FEW049 SCT055 BKN077 12/08 Q0994 BLU
21:55
V
11 °C 10 km+ 9.400 ft 290° 290° 5 kt METAR EHLW 261955Z AUTO 29005KT 240V330 9999 OVC094 11/09 Q0994 BLU
21:25
V
11 °C 10 km+ 7.600 ft 320° 320° 4 kt METAR EHLW 261925Z AUTO 32004KT 9999 FEW015CB SCT068 BKN076 11/09 Q0994 REDZ BLU
21:12
V
11 °C 10 km+ 4.800 ft 340° 340° 7 kt METAR EHLW 261912Z AUTO 34007KT 9999 FEW015CB SCT044 OVC048 11/09 Q0994 BLU
21:03
V
11 °C 10 km+ 4.700 ft 330° 330° 9 kt METAR EHLW 261903Z AUTO 33009KT 290V030 9999 DZRA FEW015CB BKN047 OVC052 11/09 Q0994 BLU
20:56
V
11 °C 10 km+ 4.000 ft 320° 320° 10 kt METAR EHLW 261856Z AUTO 32010KT 280V360 9999 -RADZ FEW015CB SCT033 BKN040 11/09 Q0994 BLU
20:55
V
11 °C 10 km+ 3.200 ft 320° 320° 10 kt METAR EHLW 261855Z AUTO 32010KT 280V350 9999 FEW015CB SCT024 BKN032 11/09 Q0994 WHT
20:25
M
11 °C 10 km+ 2.500 ft 310° 310° 10 kt METAR EHLW 261825Z AUTO 31010KT 240V350 9999 -SHRA FEW015CB BKN025 BKN031 11/10 Q0994 RERA REDZ BLU
20:17
I
11 °C 3,8 km 3.300 ft 280° 280° 8 kt METAR EHLW 261817Z AUTO 28008KT 240V310 3800 +SHRA SCT015CB SCT019 BKN033 11/10 Q0994 GRN
20:13
V
11 °C 10 km+ 6.200 ft 270° 270° 5 kt METAR EHLW 261813Z AUTO 27005KT 9999 -RA FEW015CB SCT034 OVC062 11/10 Q0994 BLU
20:04
V
11 °C 10 km+ 5.000 ft 280° 280° 5 kt METAR EHLW 261804Z AUTO 28005KT 250V340 9999 DZRA FEW015CB SCT039 BKN050 11/10 Q0994 BLU
19:55
V
11 °C 10 km+ 9.500 ft 320° 320° 5 kt METAR EHLW 261755Z AUTO 32005KT 300V360 9999 -DZ FEW015CB SCT069 BKN095 11/09 Q0994 BLU
19:31
M
11 °C 10 km+ 2.600 ft 320° 320° 10 kt METAR EHLW 261731Z AUTO 32010KT 280V360 9999 -RA FEW009 FEW015CB BKN026 BKN030 11/10 Q0994 BLU
19:25
M
11 °C 7 km 2.400 ft 310° 310° 10 kt METAR EHLW 261725Z AUTO 31010KT 270V010 7000 -SHRA FEW015CB SCT020 BKN024 11/10 Q0994 RERA WHT
19:20
V
12 °C 10 km+ 7.300 ft 280° 280° 8 - 18 kt METAR EHLW 261720Z AUTO 28008G18KT 260V010 9999 RA FEW015CB SCT021 OVC073 12/10 Q0994 WHT
18:55
V
13 °C 10 km+ 8.600 ft 280° 280° 7 kt METAR EHLW 261655Z AUTO 28007KT 9999 FEW021 SCT031 OVC086 13/09 Q0994 BLU
18:40
V
13 °C 10 km+ 8.100 ft 290° 290° 7 kt METAR EHLW 261640Z AUTO 29007KT 9999 FEW015CB SCT022 BKN081 13/10 Q0994 WHT
18:25
V
13 °C 10 km+ 6.800 ft 290° 290° 8 kt METAR EHLW 261625Z AUTO 29008KT 260V320 9999 SCT062 BKN068 BKN220 13/10 Q0993 BLU
17:55
V
14 °C 10 km+ 8.100 ft 300° 300° 6 kt METAR EHLW 261555Z AUTO 30006KT 260V330 9999 BKN081 BKN240 14/11 Q0993 BLU
17:26
V
13 °C 10 km+ 22.000 ft 320° 320° 10 kt METAR EHLW 261526Z AUTO 32010KT 290V360 9999 FEW025 SCT082 OVC220 13/11 Q0993 BLU
17:25
V
13 °C 10 km+ 3.200 ft 320° 320° 12 kt METAR EHLW 261525Z AUTO 32012KT 280V010 9999 FEW020 SCT024 BKN032 13/10 Q0993 WHT
17:11
V
14 °C 10 km+ 21.000 ft 310° 310° 14 kt METAR EHLW 261511Z AUTO 31014KT 270V350 9999 FEW015 SCT023 OVC210 14/11 Q0993 WHT
16:55
V
14 °C 10 km+ 23.000 ft 300° 300° 10 kt METAR EHLW 261455Z AUTO 30010KT 270V330 9999 FEW016 OVC230 14/10 Q0994 BLU
16:42
V
13 °C 10 km+ 24.000 ft 280° 280° 8 kt METAR EHLW 261442Z AUTO 28008KT 240V310 9999 FEW015CB OVC240 13/10 Q0994 BLU
16:29
V
14 °C 10 km+ 26.000 ft 280° 280° 10 kt METAR EHLW 261429Z AUTO 28010KT 240V310 9999 FEW014 SCT040 BKN260 14/10 Q0994 BLU
16:18
M
13 °C 7 km 2.300 ft 290° 290° 11 kt METAR EHLW 261418Z AUTO 29011KT 220V330 7000 -RA FEW016 SCT020 BKN023 13/11 Q0994 WHT
16:16
I
13 °C 3,3 km 2.000 ft 300° 300° 13 kt METAR EHLW 261416Z AUTO 30013KT 210V330 3300 -RA FEW016 BKN020 BKN024 13/11 Q0994 YLO
16:13
V
15 °C 10 km+ 23.000 ft 250° 250° 12 - 23 kt METAR EHLW 261413Z AUTO 25012G23KT 210V280 9999 FEW019 SCT024 OVC230 15/11 Q0994 WHT
15:57
V
15 °C 10 km+ 3.500 ft 240° 240° 11 kt METAR EHLW 261357Z AUTO 24011KT 200V270 9999 -RA FEW017 SCT021 BKN035 15/11 Q0994 WHT BECMG 30008KT TEMPO 4500 SHRA SCT015 SCT020CB
15:55
V
15 °C 10 km+ 3.300 ft 240° 240° 11 kt METAR EHLW 261355Z AUTO 24011KT 190V260 9999 FEW017 SCT029 BKN033 15/11 Q0994 BLU BECMG 30008KT TEMPO 4500 SHRA SCT015 SCT020CB
15:34
V
15 °C 10 km+ 7.200 ft 240° 240° 10 kt METAR EHLW 261334Z AUTO 24010KT 200V270 9999 FEW016 SCT067 BKN072 15/11 Q0994 BLU BECMG 30008KT
15:25
V
15 °C 10 km+ 3.600 ft 240° 240° 11 kt METAR EHLW 261325Z AUTO 24011KT 210V270 9999 SCT025 BKN036 BKN043 15/11 Q0994 BLU BECMG 30008KT TEMPO 31010G20KT 4500 SHRA SCT015CB BKN020
15:09
V
14 °C 10 km+ 5.100 ft 240° 240° 12 kt METAR EHLW 261309Z AUTO 24012KT 200V260 9999 BKN051 OVC056 14/12 Q0994 BLU BECMG 30008KT TEMPO 31010G20KT 4500 SHRA SCT015CB BKN020
14:55
M
14 °C 10 km+ 2.600 ft 250° 250° 11 kt METAR EHLW 261255Z AUTO 25011KT 9999 FEW016 SCT023 BKN026 14/11 Q0994 WHT BECMG 30008KT TEMPO 31010G20KT 4500 SHRA SCT015CB BKN020
14:46
M
13 °C 10 km+ 2.500 ft 250° 250° 12 kt METAR EHLW 261246Z AUTO 25012KT 210V270 9999 -SHRA FEW014 FEW015CB SCT017 BKN025 13/11 Q0994 WHT BECMG 30008KT TEMPO 31010G20KT 4500 SHRA SCT015CB BKN020
14:44
M
13 °C 10 km+ 2.600 ft 250° 250° 13 kt METAR EHLW 261244Z AUTO 25013KT 210V270 9999 -SHRA FEW014 FEW015CB SCT020 BKN026 13/11 Q0994 WHT TEMPO 4500 SHRA SCT015CB BKN020 BECMG 30008KT
14:41
M
14 °C 5 km 2.100 ft 250° 250° 13 kt METAR EHLW 261241Z AUTO 25013KT 200V270 5000 RA FEW011 SCT014 FEW015CB BKN021 14/12 Q0994 GRN TEMPO 4500 SHRA SCT007 SCT015CB BKN020 BECMG 30008KT
14:25
M
14 °C 6 km 1.000 ft 220° 220° 13 kt METAR EHLW 261225Z AUTO 22013KT 6000 -RA FEW007 BKN010 BKN013 FEW015CB 14/12 Q0994 GRN TEMPO 4500 SHRA SCT007 SCT015CB BKN020 BECMG 30008KT
13:55
M
14 °C 10 km+ 1.000 ft 190° 190° 13 kt METAR EHLW 261155Z AUTO 19013KT 150V220 9999 FEW007 BKN010 BKN014 14/12 Q0994 GRN TEMPO 2500 RADZ SCT004 BKN006 OVC008
13:42
M
13 °C 10 km+ 1.200 ft 200° 200° 13 kt METAR EHLW 261142Z AUTO 20013KT 150V230 9999 FEW006 SCT010 BKN012 13/12 Q0994 GRN TEMPO 2500 RADZ SCT004 BKN006 OVC008
13:35
I
13 °C 10 km+ 700 ft 200° 200° 12 kt METAR EHLW 261135Z AUTO 20012KT 160V230 9999 FEW005 BKN007 BKN012 FEW015CB 13/12 Q0995 GRN TEMPO 2500 RADZ SCT004 BKN006 OVC008
13:25
I
12 °C 10 km+ 600 ft 200° 200° 14 kt METAR EHLW 261125Z AUTO 20014KT 160V240 9999 FEW005 BKN006 BKN007 FEW015CB 12/12 Q0995 REDZ YLO TEMPO 2500 RADZ SCT004 BKN006 OVC008
13:16
I
13 °C 10 km+ 600 ft 200° 200° 14 kt METAR EHLW 261116Z AUTO 20014KT 160V230 9999 FEW004 BKN006 BKN007 FEW015CB 13/12 Q0995 YLO TEMPO 2500 RADZ SCT004 OVC008
13:08
I
12 °C 9 km 500 ft 200° 200° 13 kt METAR EHLW 261108Z AUTO 20013KT 150V230 9000 BR SCT004 BKN005 OVC007 12/12 Q0995 YLO TEMPO 2500 RADZ SCT005 BKN008 OVC010
12:59
I
12 °C 3,6 km 500 ft 200° 200° 13 kt METAR EHLW 261059Z AUTO 20013KT 160V230 3600 R23/P3000N +DZRA SCT004 BKN005 OVC007 12/11 Q0995 YLO TEMPO 2500 RADZ SCT005 BKN008 OVC010
12:55
I
12 °C 3,5 km 500 ft 200° 200° 14 kt METAR EHLW 261055Z AUTO 20014KT 160V230 3500 R23/P3000N -RA SCT004 BKN005 OVC007 12/11 Q0995 YLO TEMPO 2500 RADZ SCT005 BKN008 OVC010
12:41
I
12 °C 7 km 500 ft 200° 200° 14 kt METAR EHLW 261041Z AUTO 20014KT 150V230 7000 -RA SCT004 BKN005 OVC007 12/11 Q0995 YLO TEMPO 2500 RADZ SCT005 BKN008 OVC010
12:25
I
12 °C 2,8 km 600 ft 200° 200° 14 kt METAR EHLW 261025Z AUTO 20014KT 140V240 2800 R23/P3000U -RA FEW004 BKN006 BKN007 12/11 Q0995 RERA REDZ YLO TEMPO 2500 RADZ SCT005 BKN008 OVC010
12:12
I
11 °C 4,3 km 500 ft 200° 200° 14 kt METAR EHLW 261012Z AUTO 20014KT 150V220 4300 -RA SCT004 BKN005 OVC006 11/11 Q0995 YLO TEMPO 2500 RADZ SCT005 BKN008 OVC010
12:04
I
12 °C 3,3 km 600 ft 200° 200° 15 kt METAR EHLW 261004Z AUTO 20015KT 160V230 3300 R23/P3000N +DZ FEW004 BKN006 BKN007 12/11 Q0995 YLO TEMPO 2500 RADZ SCT005 BKN008 OVC010
11:56
I
12 °C 6 km 700 ft 200° 200° 15 kt METAR EHLW 260956Z AUTO 20015KT 160V230 6000 DZ FEW005 SCT006 BKN007 12/11 Q0995 YLO TEMPO 2500 SHRA SCT007 BKN010 SCT015CB
11:55
I
12 °C 7 km 700 ft 200° 200° 14 kt METAR EHLW 260955Z AUTO 20014KT 160V230 7000 -DZ FEW005 BKN007 BKN008 12/11 Q0995 REDZ GRN TEMPO 2500 SHRA SCT007 BKN010 SCT015CB
11:42
I
12 °C 6 km 700 ft 200° 200° 14 - 24 kt METAR EHLW 260942Z AUTO 20014G24KT 150V230 6000 -DZ FEW005 BKN007 BKN008 12/11 Q0996 GRN TEMPO 2500 SHRA SCT007 BKN010 SCT015CB
11:37
I
12 °C 5 km 700 ft 200° 200° 14 - 24 kt METAR EHLW 260937Z AUTO 20014G24KT 160V230 5000 -DZ SCT006 BKN007 BKN009 12/11 Q0996 YLO TEMPO 2500 SHRA SCT007 BKN010 SCT015CB
11:25
I
12 °C 9 km 700 ft 200° 200° 15 kt METAR EHLW 260925Z AUTO 20015KT 160V230 9000 DZ SCT006/// BKN007/// BKN008/// 12/11 Q0996 YLO TEMPO 2500 SHRA SCT007 BKN010 SCT015CB
11:14
I
12 °C 9 km 700 ft 210° 210° 15 kt METAR EHLW 260914Z AUTO 21015KT 150V240 9000 -RADZ SCT006 BKN007 OVC009 12/11 Q0996 YLO TEMPO 2500 SHRA SCT007 BKN010 SCT015CB
11:01
I
12 °C 6 km 800 ft 210° 210° 16 kt METAR EHLW 260901Z AUTO 21016KT 170V240 6000 -RA SCT006 BKN008 BKN010 12/10 Q0996 YLO TEMPO 2500 SHRA SCT007 BKN010 SCT015CB
10:55
I
12 °C 4 km 1.100 ft 210° 210° 17 kt METAR EHLW 260855Z AUTO 21017KT 170V230 4000 -RA FEW007 SCT009 BKN011 12/10 Q0996 RERA REDZ GRN BECMG 4000 RA SCT010 BKN015
10:42
I
12 °C 3,7 km 1.600 ft 210° 210° 17 - 27 kt METAR EHLW 260842Z AUTO 21017G27KT 160V230 3700 +DZRA FEW010 SCT013 BKN016 12/10 Q0996 GRN BECMG 4000 RA SCT010 BKN015
10:39
M
12 °C 6 km 2.400 ft 210° 210° 14 kt METAR EHLW 260839Z AUTO 21014KT 160V230 6000 DZ SCT014 SCT017 BKN024 12/10 Q0996 GRN BECMG 4000 RA SCT010 BKN015
10:29
M
12 °C 7 km 4.800 ft 210° 210° 15 kt METAR EHLW 260829Z AUTO 21015KT 160V230 7000 DZ SCT015CB SCT034 BKN048 12/10 Q0996 WHT BECMG 4000 RA SCT010 BKN015
10:25
V
13 °C 10 km+ 4.800 ft 200° 200° 16 kt METAR EHLW 260825Z AUTO 20016KT 160V250 9999 -RADZ FEW015CB SCT043 BKN048 13/10 Q0996 BLU BECMG 4000 RA SCT010 BKN015
09:55
V
12 °C 10 km+ 7.100 ft 200° 200° 17 kt METAR EHLW 260755Z AUTO 20017KT 160V240 9999 SCT066 OVC071 12/09 Q0996 BLU BECMG 4000 RA SCT010 BKN015
09:25
V
12 °C 10 km+ 4.000 ft 200° 200° 15 kt METAR EHLW 260725Z AUTO 20015KT 160V230 9999 BKN040 OVC044 12/09 Q0997 BLU BECMG SCT010 BKN015
08:55
V
12 °C 10 km+ 4.800 ft 200° 200° 15 kt METAR EHLW 260655Z AUTO 20015KT 160V230 9999 FEW043 OVC048 12/09 Q0997 BLU TEMPO 20015G25KT
08:26
V
12 °C 10 km+ 3.700 ft 200° 200° 12 kt METAR EHLW 260626Z AUTO 20012KT 140V230 9999 FEW025 SCT032 BKN037 12/09 Q0998 BLU TEMPO 20015G25KT
08:25
V
12 °C 10 km+ 3.200 ft 200° 200° 11 kt METAR EHLW 260625Z AUTO 20011KT 140V230 9999 SCT024 BKN032 OVC037 12/10 Q0998 WHT TEMPO 20015G25KT
08:13
V
12 °C 10 km+ 3.200 ft 210° 210° 13 kt METAR EHLW 260613Z AUTO 21013KT 160V230 9999 SCT024 OVC032 12/10 Q0998 WHT TEMPO 20015G25KT
08:06
V
12 °C 10 km+ 3.200 ft 200° 200° 14 kt METAR EHLW 260606Z AUTO 20014KT 160V230 9999 FEW015CB BKN032 OVC036 12/10 Q0998 BLU TEMPO 20015G25KT
07:56
V
12 °C 10 km+ 3.400 ft 200° 200° 14 kt METAR EHLW 260556Z AUTO 20014KT 160V230 9999 -DZ FEW015CB OVC034 12/10 Q0998 BLU TEMPO 20015G25KT
07:55
V
12 °C 10 km+ 3.300 ft 200° 200° 14 kt METAR EHLW 260555Z AUTO 20014KT 160V230 9999 DZ FEW015CB SCT024 OVC033 12/10 Q0998 WHT TEMPO 20015G25KT
07:35
V
12 °C 10 km+ 3.200 ft 200° 200° 13 kt METAR EHLW 260535Z AUTO 20013KT 160V230 9999 FEW015CB SCT021 BKN032 12/10 Q0999 WHT TEMPO 20015G25KT
07:26
M
12 °C 10 km+ 2.600 ft 200° 200° 13 kt METAR EHLW 260526Z AUTO 20013KT 160V230 9999 -RA FEW015CB BKN026 OVC029 12/10 Q0999 BLU TEMPO 20015G25KT
07:25
M
12 °C 10 km+ 2.900 ft 200° 200° 12 kt METAR EHLW 260525Z AUTO 20012KT 160V230 9999 -RA FEW015CB SCT025 OVC029 12/10 Q0999 RERA REDZ BLU
07:08
M
12 °C 10 km+ 2.800 ft 200° 200° 12 kt METAR EHLW 260508Z AUTO 20012KT 160V220 9999 -RA FEW015CB BKN028 OVC031 12/10 Q0999 BLU
06:56
V
12 °C 10 km+ 3.700 ft 200° 200° 13 kt METAR EHLW 260456Z AUTO 20013KT 160V230 9999 DZRA FEW015CB SCT028 BKN037 12/10 Q0999 BLU
06:55
V
12 °C 10 km+ 4.000 ft 200° 200° 12 kt METAR EHLW 260455Z AUTO 20012KT 160V230 9999 DZ FEW015CB SCT036 BKN040 12/10 Q0999 BLU
06:39
V
12 °C 10 km+ 3.100 ft 200° 200° 12 kt METAR EHLW 260439Z AUTO 20012KT 150V240 9999 -DZ FEW015CB BKN031 OVC044 12/10 Q1000 BLU
06:27
V
12 °C 10 km+ 3.300 ft 200° 200° 12 kt METAR EHLW 260427Z AUTO 20012KT 160V220 9999 DZRA FEW015CB BKN033 BKN045 OVC050 12/10 Q1000 BLU
06:25
V
12 °C 10 km+ 4.900 ft 200° 200° 12 kt METAR EHLW 260425Z AUTO 20012KT 160V230 9999 -RA FEW015CB SCT034 OVC049 12/10 Q1000 RERA REDZ BLU
06:19
V
12 °C 10 km+ 5.000 ft 200° 200° 12 kt METAR EHLW 260419Z AUTO 20012KT 170V230 9999 -RA FEW015CB SCT045 OVC050 12/10 Q1000 BLU
06:10
V
12 °C 10 km+ 5.100 ft 200° 200° 11 kt METAR EHLW 260410Z AUTO 20011KT 160V230 9999 DZRA OVC051 12/10 Q1000 BLU
05:55
V
12 °C 10 km+ 6.300 ft 200° 200° 11 kt METAR EHLW 260355Z AUTO 20011KT 150V230 9999 -RA FEW015CB SCT056 BKN063 BKN071 12/10 Q1001 BLU
05:25
V
12 °C 10 km+ 5.700 ft 200° 200° 10 kt METAR EHLW 260325Z AUTO 20010KT 160V230 9999 FEW015CB BKN057 BKN062 12/10 Q1001 BLU
04:55
V
12 °C 10 km+ 5.300 ft 200° 200° 10 kt METAR EHLW 260255Z AUTO 20010KT 170V230 9999 -DZ FEW015CB BKN053 12/10 Q1002 BLU
04:38
V
12 °C 10 km+ 5.200 ft 200° 200° 9 kt METAR EHLW 260238Z AUTO 20009KT 170V230 9999 DZRA BKN052 BKN064 OVC073 12/10 Q1002 BLU
04:25
V
12 °C 10 km+ 5.900 ft 200° 200° 8 kt METAR EHLW 260225Z AUTO 20008KT 160V240 9999 FEW015CB BKN059 BKN070 OVC075 12/10 Q1003 BLU
04:09
V
12 °C 10 km+ 4.800 ft 200° 200° 10 kt METAR EHLW 260209Z AUTO 20010KT 160V230 9999 -RADZ FEW015CB BKN048 BKN053 BKN059 12/09 Q1003 BLU
04:00
V
12 °C 10 km+ 5.000 ft 210° 210° 9 kt METAR EHLW 260200Z AUTO 21009KT 170V230 9999 -SHRA FEW015CB SCT029 BKN050 12/09 Q1003 BLU
03:55
V
12 °C 10 km+ 4.100 ft 210° 210° 10 kt METAR EHLW 260155Z AUTO 21010KT 170V230 9999 -RA FEW015CB SCT026 BKN041 12/09 Q1004 RERA REDZ BLU
03:44
V
12 °C 10 km+ 5.800 ft 210° 210° 9 kt METAR EHLW 260144Z AUTO 21009KT 170V240 9999 -SHRA FEW015CB SCT047 OVC058 12/09 Q1004 BLU
03:25
V
12 °C 10 km+ 4.700 ft 200° 200° 8 kt METAR EHLW 260125Z AUTO 20008KT 170V230 9999 DZ BKN047 BKN053 OVC064 12/09 Q1004 BLU
03:04
V
12 °C 10 km+ 6.300 ft 210° 210° 10 kt METAR EHLW 260104Z AUTO 21010KT 180V240 9999 DZ FEW015CB SCT053 BKN063 12/09 Q1004 BLU
02:55
V
12 °C 10 km+ 6.100 ft 210° 210° 10 kt METAR EHLW 260055Z AUTO 21010KT 170V240 9999 DZRA SCT052 BKN061 OVC070 12/09 Q1005 BLU
02:25
V
12 °C 10 km+ 5.700 ft 200° 200° 9 kt METAR EHLW 260025Z AUTO 20009KT 160V230 9999 FEW036 BKN057 OVC070 12/09 Q1005 BLU
01:55
V
12 °C 10 km+ 5.700 ft 200° 200° 9 kt METAR EHLW 252355Z AUTO 20009KT 160V220 9999 -DZ FEW051 BKN057 OVC070 12/10 Q1006 BLU
01:36
V
12 °C 10 km+ 5.100 ft 200° 200° 8 kt METAR EHLW 252336Z AUTO 20008KT 9999 -DZRA OVC051 12/10 Q1006 BLU
01:25
V
11 °C 10 km+ 5.300 ft 200° 200° 7 kt METAR EHLW 252325Z AUTO 20007KT 160V230 9999 OVC053 11/10 Q1007 BLU
00:55
V
11 °C 10 km+ 5.700 ft 190° 190° 7 kt METAR EHLW 252255Z AUTO 19007KT 9999 OVC057 11/10 Q1007 BLU
00:25
V
11 °C 10 km+ 10.000 ft 200° 200° 6 kt METAR EHLW 252225Z AUTO 20006KT 9999 OVC100 11/09 Q1008 BLU

25 września 2022

Czas Kod Pogoda Temp. Widoczność Sufit Wiatr METAR/SPECI
23:55
V
11 °C 10 km+ 14.000 ft 220° 220° 8 kt METAR EHLW 252155Z AUTO 22008KT 9999 OVC140 11/09 Q1008 BLU
23:25
V
12 °C 10 km+ 6.300 ft 220° 220° 7 kt METAR EHLW 252125Z AUTO 22007KT 9999 FEW030 BKN063 12/09 Q1009 BLU
22:55
V
11 °C 10 km+ 6.100 ft 210° 210° 6 kt METAR EHLW 252055Z AUTO 21006KT 9999 SCT040 OVC061 11/09 Q1009 BLU
22:25
V
11 °C 10 km+ 5.600 ft 210° 210° 6 kt METAR EHLW 252025Z AUTO 21006KT 9999 FEW044 SCT049 OVC056 11/09 Q1010 BLU
21:55
V
11 °C 10 km+ 5.700 ft 210° 210° 4 kt METAR EHLW 251955Z AUTO 21004KT 9999 OVC057 11/09 Q1010 BLU
21:25
V
11 °C 10 km+ 6.000 ft 190° 190° 5 kt METAR EHLW 251925Z AUTO 19005KT 160V220 9999 OVC060 11/09 Q1010 BLU
20:55
V
11 °C 10 km+ 4.900 ft 250° 250° 3 kt METAR EHLW 251855Z AUTO 25003KT 210V280 9999 DZ SCT027 BKN049 OVC053 11/09 Q1011 BLU
20:25
V
11 °C 10 km+ 21.000 ft 200° 200° 5 kt METAR EHLW 251825Z AUTO 20005KT 9999 OVC210 11/08 Q1011 BLU
19:55
V
11 °C 10 km+ 22.000 ft 220° 220° 4 kt METAR EHLW 251755Z AUTO 22004KT 9999 FEW068 OVC220 11/08 Q1011 BLU
19:25
V
12 °C 10 km+ 24.000 ft 260° 260° 6 kt METAR EHLW 251725Z AUTO 26006KT 9999 FEW054 OVC240 12/08 Q1012 BLU
18:55
V
13 °C 10 km+ 38.000 ft 260° 260° 5 kt METAR EHLW 251655Z AUTO 26005KT 9999 SCT250 OVC380 13/08 Q1012 BLU
18:25
V
14 °C 10 km+ 26.000 ft 270° 270° 5 kt METAR EHLW 251625Z AUTO 27005KT 9999 FEW063 BKN260 OVC360 14/08 Q1012 BLU
17:55
V
14 °C 10 km+ 5.300 ft 290° 290° 7 kt METAR EHLW 251555Z AUTO 29007KT 9999 BKN053 OVC058 14/09 Q1012 BLU
17:25
V
14 °C 10 km+ 5.100 ft 300° 300° 6 kt METAR EHLW 251525Z AUTO 30006KT 260V320 9999 BKN051 OVC060 14/08 Q1013 BLU
16:55
V
15 °C 10 km+ 5.600 ft 300° 300° 6 kt METAR EHLW 251455Z AUTO 30006KT 260V330 9999 BKN056 OVC062 15/08 Q1013 BLU
16:25
V
15 °C 10 km+ 6.600 ft 320° 320° 6 kt METAR EHLW 251425Z AUTO 32006KT 260V340 9999 FEW056 OVC066 15/07 Q1013 BLU
15:55
V
15 °C 10 km+ - 310° 310° 8 kt METAR EHLW 251355Z AUTO 31008KT 270V010 9999 FEW048 15/07 Q1013 BLU
15:25
V
16 °C 10 km+ - 320° 320° 8 kt METAR EHLW 251325Z AUTO 32008KT 310V020 9999 NCD 16/07 Q1013 BLU
14:55
V
16 °C 10 km+ 5.000 ft 350° 350° 6 kt METAR EHLW 251255Z AUTO 35006KT 9999 SCT033 SCT042 BKN050 16/09 Q1014 BLU
14:25
V
16 °C 10 km+ - 350° 350° 5 kt METAR EHLW 251225Z AUTO 35005KT 300V050 9999 FEW044 16/08 Q1014 BLU
13:55
V
16 °C 10 km+ - 330° 330° 8 kt METAR EHLW 251155Z AUTO 33008KT 300V020 9999 SCT037 16/07 Q1014 BLU
13:25
V
16 °C 10 km+ - 340° 340° 4 kt METAR EHLW 251125Z AUTO 34004KT 300V050 9999 FEW034 SCT063 16/09 Q1014 BLU
12:55
V
14 °C 10 km+ 6.400 ft 020° 020° 5 kt METAR EHLW 251055Z AUTO 02005KT 340V040 9999 SCT056 OVC064 14/09 Q1015 BLU
12:25
M
14 °C 10 km+ 2.800 ft 350° 350° 11 kt METAR EHLW 251025Z AUTO 35011KT 300V020 9999 BKN028 BKN031 BKN037 14/08 Q1015 BLU
11:55
V
16 °C 10 km+ 7.600 ft 330° 330° 5 kt METAR EHLW 250955Z AUTO 33005KT 260V040 9999 SCT071 OVC076 16/11 Q1015 BLU
11:26
V
14 °C 10 km+ 5.300 ft 340° 340° 8 kt METAR EHLW 250926Z AUTO 34008KT 300V020 9999 FEW024 BKN053 OVC059 14/09 Q1015 BLU
11:25
V
14 °C 10 km+ 5.100 ft 350° 350° 9 kt METAR EHLW 250925Z AUTO 35009KT 300V050 9999 SCT024 SCT028 OVC051 14/10 Q1015 WHT
11:16
V
15 °C 10 km+ 4.200 ft 010° 010° 9 kt METAR EHLW 250916Z AUTO 01009KT 330V060 9999 SCT024 SCT028 BKN042 15/09 Q1015 WHT
10:55
V
15 °C 10 km+ - 010° 010° 8 kt METAR EHLW 250855Z AUTO 01008KT 330V030 9999 FEW022CB 15/09 Q1015 BLU
10:25
V
13 °C 10 km+ - 360° 360° 4 kt METAR EHLW 250825Z AUTO 36004KT 320V030 9999 FEW015CB SCT090 13/10 Q1015 BLU
09:55
V
13 °C 10 km+ - 270° 270° 5 kt METAR EHLW 250755Z AUTO 27005KT 240V300 9999 FEW015CB SCT031 13/11 Q1015 BLU
09:25
V
12 °C 10 km+ - 250° 250° 4 kt METAR EHLW 250725Z AUTO 25004KT 9999 NCD 12/10 Q1015 BLU
08:55
V
10 °C 10 km+ - 240° 240° 3 kt METAR EHLW 250655Z AUTO 24003KT 9999 NCD 10/09 Q1015 BLU
08:25
V
9 °C 10 km+ - 250° 250° 5 kt METAR EHLW 250625Z AUTO 25005KT 9999 NCD 09/08 Q1015 BLU
08:09
V
8 °C 10 km+ - 250° 250° 4 kt METAR EHLW 250609Z AUTO 25004KT 9999 NCD 08/08 Q1015 BLU
07:55
V
9 °C 10 km+ - 230° 230° 3 kt METAR EHLW 250555Z AUTO 23003KT 9999 NCD 09/08 Q1015 BLU
07:41
I
9 °C 2,8 km - 220° 220° 3 kt METAR EHLW 250541Z AUTO 22003KT 2800 BR FEW034 09/08 Q1015 YLO
07:25
V
9 °C 10 km+ - Var Var 2 kt METAR EHLW 250525Z AUTO VRB02KT 9999 NCD 09/09 Q1015 REDZ BLU
06:55
V
10 °C 10 km+ 5.000 ft 070° 070° 2 kt METAR EHLW 250455Z AUTO 07002KT 9999 -RA FEW013 FEW015CB SCT041 BKN050 10/09 Q1015 RERA REDZ BLU
06:44
M
10 °C 10 km+ 2.600 ft Var Var 1 kt METAR EHLW 250444Z AUTO VRB01KT 9999 -DZRA FEW015CB SCT021 BKN026 BKN030 10/09 Q1015 WHT
06:37
M
10 °C 10 km+ 2.700 ft Var Var 2 kt METAR EHLW 250437Z AUTO VRB02KT 9999 FEW015CB SCT022 BKN027 BKN033 10/09 Q1015 WHT
06:25
M
10 °C 10 km+ 2.800 ft 230° 230° 3 kt METAR EHLW 250425Z AUTO 23003KT 150V250 9999 FEW015CB BKN028 BKN035 10/09 Q1015 BLU
06:18
V
10 °C 10 km+ 3.900 ft Var Var 1 kt METAR EHLW 250418Z AUTO VRB01KT 9999 FEW015CB SCT028 BKN039 OVC044 10/09 Q1015 BLU
06:02
V
10 °C 10 km+ 3.600 ft Var Var 2 kt METAR EHLW 250402Z AUTO VRB02KT 9999 RA FEW015CB SCT026 BKN036 10/09 Q1015 BLU
05:55
M
10 °C 10 km+ 2.600 ft 310° 310° 3 kt METAR EHLW 250355Z AUTO 31003KT 230V340 9999 FEW015CB BKN026 OVC036 10/09 Q1015 BLU
05:25
V
10 °C 10 km+ 5.900 ft 020° 020° 6 kt METAR EHLW 250325Z AUTO 02006KT 340V040 9999 FEW015CB SCT052 BKN059 OVC070 10/08 Q1015 BLU
05:10
V
11 °C 10 km+ 5.400 ft 020° 020° 6 kt METAR EHLW 250310Z AUTO 02006KT 350V070 9999 FEW015CB BKN054 OVC062 11/08 Q1015 BLU
05:04
V
11 °C 10 km+ 5.300 ft 360° 360° 8 kt METAR EHLW 250304Z AUTO 36008KT 330V030 9999 -SHRA FEW015CB BKN053 OVC060 11/09 Q1015 BLU
04:59
V
11 °C 10 km+ 5.100 ft 350° 350° 9 kt METAR EHLW 250259Z AUTO 35009KT 320V030 9999 -RA FEW015CB SCT045 BKN051 11/09 Q1015 BLU
04:55
V
11 °C 10 km+ 4.500 ft 350° 350° 11 kt METAR EHLW 250255Z AUTO 35011KT 300V020 9999 -RA FEW015CB SCT024 BKN045 11/09 Q1015 RERA WHT
04:25
V
8 °C 10 km+ - 320° 320° 5 kt METAR EHLW 250225Z AUTO 32005KT 9999 FEW073 08/07 Q1015 BLU
03:55
V
9 °C 10 km+ - 330° 330° 4 kt METAR EHLW 250155Z AUTO 33004KT 9999 FEW015CB 09/07 Q1015 BLU
03:25
M
8 °C 10 km+ 2.700 ft 310° 310° 5 kt METAR EHLW 250125Z AUTO 31005KT 260V350 9999 FEW015CB BKN027 BKN035 BKN063 08/07 Q1015 BLU
02:55
V
9 °C 10 km+ - 310° 310° 3 kt METAR EHLW 250055Z AUTO 31003KT 9999 FEW028 09/08 Q1015 BLU
02:25
V
8 °C 10 km+ - 330° 330° 5 kt METAR EHLW 250025Z AUTO 33005KT 300V360 9999 NCD 08/07 Q1015 BLU
01:55
V
10 °C 10 km+ - 350° 350° 4 kt METAR EHLW 242355Z AUTO 35004KT 9999 FEW028 10/09 Q1015 BLU
01:25
V
11 °C 10 km+ 7.900 ft 340° 340° 4 kt METAR EHLW 242325Z AUTO 34004KT 9999 FEW069 OVC079 11/09 Q1015 BLU
00:55
V
11 °C 10 km+ 6.000 ft 310° 310° 5 kt METAR EHLW 242255Z AUTO 31005KT 270V360 9999 -DZ FEW042 OVC060 11/09 Q1015 BLU
00:25
V
10 °C 10 km+ 6.800 ft 310° 310° 3 kt METAR EHLW 242225Z AUTO 31003KT 280V350 9999 FEW015CB SCT056 OVC068 10/09 Q1015 REDZ BLU

24 września 2022

Czas Kod Pogoda Temp. Widoczność Sufit Wiatr METAR/SPECI
23:55
V
10 °C 10 km+ 4.200 ft 340° 340° 4 kt METAR EHLW 242155Z AUTO 34004KT 270V350 9999 SCT028 SCT032 BKN042 10/09 Q1015 BLU
23:25
V
10 °C 10 km+ - 340° 340° 5 kt METAR EHLW 242125Z AUTO 34005KT 9999 NCD 10/09 Q1015 BLU
22:55
V
12 °C 10 km+ 6.500 ft 360° 360° 4 kt METAR EHLW 242055Z AUTO 36004KT 9999 FEW019 BKN065 OVC071 12/10 Q1015 REDZ BLU
22:32
V
12 °C 10 km+ 3.100 ft 340° 340° 8 kt METAR EHLW 242032Z AUTO 34008KT 300V010 9999 RADZ SCT027 BKN031 BKN042 12/10 Q1015 BLU
22:25
V
12 °C 10 km+ 3.100 ft 340° 340° 5 kt METAR EHLW 242025Z AUTO 34005KT 9999 -RA FEW022 SCT027 BKN031 12/10 Q1015 RERA BLU
22:16
V
12 °C 10 km+ 3.000 ft 350° 350° 6 kt METAR EHLW 242016Z AUTO 35006KT 290V360 9999 -SHRA FEW015CB SCT022 BKN030 12/10 Q1015 WHT
22:13
V
12 °C 10 km+ 3.100 ft 340° 340° 8 kt METAR EHLW 242013Z AUTO 34008KT 280V350 9999 +SHRA FEW015CB SCT025 BKN031 12/10 Q1015 BLU
22:06
V
10 °C 10 km+ 4.500 ft 340° 340° 7 kt METAR EHLW 242006Z AUTO 34007KT 320V030 9999 RA FEW015CB SCT026 BKN045 10/09 Q1015 BLU
21:55
V
11 °C 10 km+ - 340° 340° 4 kt METAR EHLW 241955Z AUTO 34004KT 9999 FEW015CB 11/09 Q1015 BLU
21:25
V
12 °C 10 km+ 3.200 ft 360° 360° 5 kt METAR EHLW 241925Z AUTO 36005KT 9999 SCT025 BKN032 BKN039 12/10 Q1015 BLU
20:55
V
12 °C 10 km+ 4.200 ft 010° 010° 6 kt METAR EHLW 241855Z AUTO 01006KT 9999 FEW026 SCT037 BKN042 12/10 Q1015 BLU
20:25
V
10 °C 10 km+ - 010° 010° 5 kt METAR EHLW 241825Z AUTO 01005KT 9999 NCD 10/08 Q1015 BLU
19:55
V
11 °C 10 km+ - 010° 010° 6 kt METAR EHLW 241755Z AUTO 01006KT 9999 FEW037 11/09 Q1015 BLU
19:25
V
13 °C 10 km+ - 020° 020° 8 kt METAR EHLW 241725Z AUTO 02008KT 9999 NCD 13/09 Q1015 BLU
18:55
V
14 °C 10 km+ - 010° 010° 9 kt METAR EHLW 241655Z AUTO 01009KT 9999 NCD 14/09 Q1014 BLU
18:25
V
15 °C 10 km+ 31.000 ft 010° 010° 10 kt METAR EHLW 241625Z AUTO 01010KT 350V050 9999 FEW025 BKN310 15/09 Q1014 BLU
17:55
V
15 °C 10 km+ 3.100 ft 010° 010° 13 kt METAR EHLW 241555Z AUTO 01013KT 340V040 9999 SCT025 BKN031 BKN037 15/10 Q1014 BLU
17:25
V
15 °C 10 km+ 31.000 ft 020° 020° 13 kt METAR EHLW 241525Z AUTO 02013KT 340V040 9999 FEW028 BKN310 15/09 Q1014 BLU
16:55
V
15 °C 10 km+ - 020° 020° 14 kt METAR EHLW 241455Z AUTO 02014KT 340V060 9999 SCT028 15/09 Q1014 BLU
Starsze dane

My i osoby trzecie śledzimy twoje zachowanie w internecie na naszej stronie za pomocą plików cookie. Jeśli kontynuujesz, zakładamy, że zgadzasz się z naszą polityką plików cookie. Dowiedz się więcej